Purki — 9HA2386 — position and weather

sailwx.info

Track history (hours):
 
Tides and Currents Weather Stations Pressure Air Temp Water Temp Dewpoint Dewpoint Depression Visibility Wind Speed Wind Dir Waves Ship Positions

Purki

Last reported at 2017-Jun-22 16:23 UTC. Time now 2017-Jun-23 00:12 UTC.
Position N 36°54' E 007°46'.

Length 146 m; draft 8.3 m.

Type: Cargo ship. MMSI: 248495000.

Date/timePositionNaut miles runAvg speedWind from/ knotsBaromVisibWave heightAir tempDewpointWater temp
2017-Jun-22 16:23N 36°54' E 007°46'78 4.8
2017-Jun-22 00:04N 37°21' E 009°18'112.4
2017-Jun-22 00:01N 37°21' E 009°18'28 2.6
2017-Jun-21 13:17N 37°16' E 009°52'0 0.0
2017-Jun-21 12:53N 37°16' E 009°52'0 0.0
2017-Jun-21 12:26N 37°16' E 009°52'  
2017-Jun-18 04:59N 36°56' E 012°44'612.7
2017-Jun-18 04:30N 36°55' E 012°51'612.9
2017-Jun-18 04:00N 36°54' E 012°59'713.2
2017-Jun-18 03:30N 36°53' E 013°07'713.0
2017-Jun-18 03:00N 36°52' E 013°15'612.8
2017-Jun-18 02:30N 36°51' E 013°23'612.6
2017-Jun-18 02:00N 36°50' E 013°31'612.5
2017-Jun-18 01:30N 36°49' E 013°38'612.5
2017-Jun-18 01:00N 36°48' E 013°46'612.7
2017-Jun-18 00:30N 36°46' E 013°54'612.9
2017-Jun-18 00:00N 36°45' E 014°02'612.9
2017-Jun-17 23:30N 36°44' E 014°10'612.6
2017-Jun-17 23:00N 36°43' E 014°18'612.6
2017-Jun-17 22:30N 36°42' E 014°25'612.4
2017-Jun-17 22:00N 36°41' E 014°33'613.0
2017-Jun-17 21:30N 36°40' E 014°41'713.0
2017-Jun-17 21:00N 36°38' E 014°49'1012.6
2017-Jun-17 20:13N 36°37' E 015°01'312.1
2017-Jun-17 20:00N 36°36' E 015°04'612.2
2017-Jun-17 19:30N 36°36' E 015°12'612.1
2017-Jun-17 19:00N 36°36' E 015°19'612.1
2017-Jun-17 18:30N 36°36' E 015°27'612.2
2017-Jun-17 18:00N 36°36' E 015°34'712.1
2017-Jun-17 17:27N 36°36' E 015°43'512.4
2017-Jun-17 17:00N 36°35' E 015°49'4012.9
2017-Jun-17 13:52N 36°33' E 016°40'513.3
2017-Jun-17 13:28N 36°33' E 016°46'2613.2
2017-Jun-17 11:33N 36°32' E 017°18'013.2
2017-Jun-17 11:30N 36°32' E 017°19'17313.1
2017-Jun-16 22:18N 36°26' E 020°54'12212.8
2017-Jun-16 12:45N 36°31' E 023°26'313.6
2017-Jun-16 12:31N 36°33' E 023°29'1113.6
2017-Jun-16 11:41N 36°39' E 023°41'213.5
2017-Jun-16 11:30N 36°41' E 023°44'6113.2
2017-Jun-16 06:51N 37°14' E 024°48'513.2
2017-Jun-16 06:31N 37°17' E 024°52'713.3
2017-Jun-16 06:01N 37°21' E 024°59'613.0
2017-Jun-16 05:30N 37°25' E 025°06'713.5
2017-Jun-16 05:00N 37°29' E 025°12'713.4
2017-Jun-16 04:31N 37°33' E 025°19'713.5
2017-Jun-16 04:01N 37°39' E 025°23'713.7
2017-Jun-16 03:31N 37°46' E 025°25'713.5
2017-Jun-16 03:01N 37°52' E 025°28'120 4.8
2017-Jun-15 02:03N 39°51' E 025°52'  
Track history (hours):
 
Tides and Currents Weather Stations Pressure Air Temp Water Temp Dewpoint Dewpoint Depression Visibility Wind Speed Wind Dir Waves Ship Positions

Purki

Last reported at 2017-Jun-22 16:23 UTC. Time now 2017-Jun-23 00:12 UTC.
Position N 36°54' E 007°46'.

Length 146 m; draft 8.3 m.

Type: Cargo ship. MMSI: 248495000.

Date/timePositionNaut miles runAvg speedWind from/ knotsBaromVisibWave heightAir tempDewpointWater temp
2017-Jun-22 16:23N 36°54' E 007°46'78 4.8
2017-Jun-22 00:04N 37°21' E 009°18'112.4
2017-Jun-22 00:01N 37°21' E 009°18'28 2.6
2017-Jun-21 13:17N 37°16' E 009°52'0 0.0
2017-Jun-21 12:53N 37°16' E 009°52'0 0.0
2017-Jun-21 12:26N 37°16' E 009°52'  
2017-Jun-18 04:59N 36°56' E 012°44'612.7
2017-Jun-18 04:30N 36°55' E 012°51'612.9
2017-Jun-18 04:00N 36°54' E 012°59'713.2
2017-Jun-18 03:30N 36°53' E 013°07'713.0
2017-Jun-18 03:00N 36°52' E 013°15'612.8
2017-Jun-18 02:30N 36°51' E 013°23'612.6
2017-Jun-18 02:00N 36°50' E 013°31'612.5
2017-Jun-18 01:30N 36°49' E 013°38'612.5
2017-Jun-18 01:00N 36°48' E 013°46'612.7
2017-Jun-18 00:30N 36°46' E 013°54'612.9
2017-Jun-18 00:00N 36°45' E 014°02'612.9
2017-Jun-17 23:30N 36°44' E 014°10'612.6
2017-Jun-17 23:00N 36°43' E 014°18'612.6
2017-Jun-17 22:30N 36°42' E 014°25'612.4
2017-Jun-17 22:00N 36°41' E 014°33'613.0
2017-Jun-17 21:30N 36°40' E 014°41'713.0
2017-Jun-17 21:00N 36°38' E 014°49'1012.6
2017-Jun-17 20:13N 36°37' E 015°01'312.1
2017-Jun-17 20:00N 36°36' E 015°04'612.2
2017-Jun-17 19:30N 36°36' E 015°12'612.1
2017-Jun-17 19:00N 36°36' E 015°19'612.1
2017-Jun-17 18:30N 36°36' E 015°27'612.2
2017-Jun-17 18:00N 36°36' E 015°34'712.1
2017-Jun-17 17:27N 36°36' E 015°43'512.4
2017-Jun-17 17:00N 36°35' E 015°49'4012.9
2017-Jun-17 13:52N 36°33' E 016°40'513.3
2017-Jun-17 13:28N 36°33' E 016°46'2613.2
2017-Jun-17 11:33N 36°32' E 017°18'013.2
2017-Jun-17 11:30N 36°32' E 017°19'17313.1
2017-Jun-16 22:18N 36°26' E 020°54'12212.8
2017-Jun-16 12:45N 36°31' E 023°26'313.6
2017-Jun-16 12:31N 36°33' E 023°29'1113.6
2017-Jun-16 11:41N 36°39' E 023°41'213.5
2017-Jun-16 11:30N 36°41' E 023°44'6113.2
2017-Jun-16 06:51N 37°14' E 024°48'513.2
2017-Jun-16 06:31N 37°17' E 024°52'713.3
2017-Jun-16 06:01N 37°21' E 024°59'613.0
2017-Jun-16 05:30N 37°25' E 025°06'713.5
2017-Jun-16 05:00N 37°29' E 025°12'713.4
2017-Jun-16 04:31N 37°33' E 025°19'713.5
2017-Jun-16 04:01N 37°39' E 025°23'713.7
2017-Jun-16 03:31N 37°46' E 025°25'713.5
2017-Jun-16 03:01N 37°52' E 025°28'120 4.8
2017-Jun-15 02:03N 39°51' E 025°52'  

Dump ship's entire track history